sensor_id;sensor_type;location;lat;lon;timestamp;P1;durP1;ratioP1;P2;durP2;ratioP2
78222;SDS011;67497;53.058;21.618;2023-02-28T00:02:09;217.73;;;75.47;;
78222;SDS011;67497;53.058;21.618;2023-02-28T00:04:10;225.65;;;78.15;;
78222;SDS011;67497;53.058;21.618;2023-02-28T00:06:11;207.98;;;77.95;;
78222;SDS011;67497;53.058;21.618;2023-02-28T00:08:11;207.73;;;74.50;;
78222;SDS011;67497;53.058;21.618;2023-02-28T00:10:14;211.50;;;76.60;;
78222;SDS011;67497;53.058;21.618;2023-02-28T00:12:20;216.85;;;77.72;;
78222;SDS011;67497;53.058;21.618;2023-02-28T00:14:21;223.30;;;76.45;;
78222;SDS011;67497;53.058;21.618;2023-02-28T00:16:21;222.27;;;75.82;;
78222;SDS011;67497;53.058;21.618;2023-02-28T00:18:22;212.60;;;75.35;;
78222;SDS011;67497;53.058;21.618;2023-02-28T00:20:23;224.65;;;79.55;;
78222;SDS011;67497;53.058;21.618;2023-02-28T00:22:24;217.77;;;76.65;;
78222;SDS011;67497;53.058;21.618;2023-02-28T00:24:25;225.27;;;78.45;;
78222;SDS011;67497;53.058;21.618;2023-02-28T00:26:25;239.65;;;86.65;;
78222;SDS011;67497;53.058;21.618;2023-02-28T00:28:26;232.25;;;81.75;;
78222;SDS011;67497;53.058;21.618;2023-02-28T00:30:27;234.85;;;77.93;;
78222;SDS011;67497;53.058;21.618;2023-02-28T00:32:27;219.57;;;77.15;;
78222;SDS011;67497;53.058;21.618;2023-02-28T00:34:28;224.65;;;78.88;;
78222;SDS011;67497;53.058;21.618;2023-02-28T00:36:29;238.05;;;82.70;;
78222;SDS011;67497;53.058;21.618;2023-02-28T00:38:29;223.93;;;77.13;;
78222;SDS011;67497;53.058;21.618;2023-02-28T00:40:30;234.68;;;85.88;;
78222;SDS011;67497;53.058;21.618;2023-02-28T00:42:30;226.00;;;76.63;;
78222;SDS011;67497;53.058;21.618;2023-02-28T00:44:31;236.27;;;79.65;;
78222;SDS011;67497;53.058;21.618;2023-02-28T00:46:31;233.20;;;78.32;;
78222;SDS011;67497;53.058;21.618;2023-02-28T00:48:32;261.83;;;86.78;;
78222;SDS011;67497;53.058;21.618;2023-02-28T00:50:33;239.02;;;83.25;;
78222;SDS011;67497;53.058;21.618;2023-02-28T00:52:33;243.05;;;84.72;;
78222;SDS011;67497;53.058;21.618;2023-02-28T00:54:34;243.68;;;82.45;;
78222;SDS011;67497;53.058;21.618;2023-02-28T00:56:35;236.05;;;82.63;;
78222;SDS011;67497;53.058;21.618;2023-02-28T00:58:35;239.55;;;81.68;;
78222;SDS011;67497;53.058;21.618;2023-02-28T01:00:36;256.58;;;85.40;;
78222;SDS011;67497;53.058;21.618;2023-02-28T01:02:36;259.40;;;84.28;;
78222;SDS011;67497;53.058;21.618;2023-02-28T01:04:37;251.52;;;84.15;;
78222;SDS011;67497;53.058;21.618;2023-02-28T01:06:38;246.63;;;84.93;;
78222;SDS011;67497;53.058;21.618;2023-02-28T01:08:38;249.02;;;85.22;;
78222;SDS011;67497;53.058;21.618;2023-02-28T01:10:39;256.58;;;86.82;;
78222;SDS011;67497;53.058;21.618;2023-02-28T01:12:40;250.18;;;85.85;;
78222;SDS011;67497;53.058;21.618;2023-02-28T01:14:40;245.43;;;86.25;;
78222;SDS011;67497;53.058;21.618;2023-02-28T01:16:41;266.13;;;85.97;;
78222;SDS011;67497;53.058;21.618;2023-02-28T01:18:42;265.63;;;83.15;;
78222;SDS011;67497;53.058;21.618;2023-02-28T01:20:43;251.05;;;85.45;;
78222;SDS011;67497;53.058;21.618;2023-02-28T01:22:44;275.60;;;93.72;;
78222;SDS011;67497;53.058;21.618;2023-02-28T01:24:44;257.27;;;86.18;;
78222;SDS011;67497;53.058;21.618;2023-02-28T01:26:45;277.00;;;88.32;;
78222;SDS011;67497;53.058;21.618;2023-02-28T01:28:45;266.83;;;86.07;;
78222;SDS011;67497;53.058;21.618;2023-02-28T01:30:49;270.38;;;89.90;;
78222;SDS011;67497;53.058;21.618;2023-02-28T01:32:51;277.05;;;90.93;;
78222;SDS011;67497;53.058;21.618;2023-02-28T01:34:53;269.30;;;91.78;;
78222;SDS011;67497;53.058;21.618;2023-02-28T01:36:54;274.17;;;94.43;;
78222;SDS011;67497;53.058;21.618;2023-02-28T01:38:54;296.75;;;93.93;;
78222;SDS011;67497;53.058;21.618;2023-02-28T01:40:55;281.85;;;89.43;;
78222;SDS011;67497;53.058;21.618;2023-02-28T01:42:56;285.60;;;91.63;;
78222;SDS011;67497;53.058;21.618;2023-02-28T01:44:58;286.63;;;89.28;;
78222;SDS011;67497;53.058;21.618;2023-02-28T01:47:04;280.13;;;90.10;;
78222;SDS011;67497;53.058;21.618;2023-02-28T01:49:09;290.73;;;91.22;;
78222;SDS011;67497;53.058;21.618;2023-02-28T01:51:16;298.45;;;91.20;;
78222;SDS011;67497;53.058;21.618;2023-02-28T01:53:24;287.55;;;89.90;;
78222;SDS011;67497;53.058;21.618;2023-02-28T01:57:35;312.60;;;94.90;;
78222;SDS011;67497;53.058;21.618;2023-02-28T01:59:51;289.38;;;93.68;;
78222;SDS011;67497;53.058;21.618;2023-02-28T02:01:56;296.65;;;93.85;;
78222;SDS011;67497;53.058;21.618;2023-02-28T02:03:57;300.60;;;95.00;;
78222;SDS011;67497;53.058;21.618;2023-02-28T02:06:01;293.98;;;93.82;;
78222;SDS011;67497;53.058;21.618;2023-02-28T02:08:03;297.98;;;96.25;;
78222;SDS011;67497;53.058;21.618;2023-02-28T02:10:10;294.75;;;94.25;;
78222;SDS011;67497;53.058;21.618;2023-02-28T02:12:40;310.73;;;94.95;;
78222;SDS011;67497;53.058;21.618;2023-02-28T02:14:59;311.25;;;98.57;;
78222;SDS011;67497;53.058;21.618;2023-02-28T02:22:12;326.20;;;96.75;;
78222;SDS011;67497;53.058;21.618;2023-02-28T02:24:42;315.23;;;96.40;;
78222;SDS011;67497;53.058;21.618;2023-02-28T02:31:54;312.00;;;102.72;;
78222;SDS011;67497;53.058;21.618;2023-02-28T02:43:29;321.25;;;103.93;;
78222;SDS011;67497;53.058;21.618;2023-02-28T02:45:43;323.45;;;104.32;;
78222;SDS011;67497;53.058;21.618;2023-02-28T02:47:45;317.63;;;97.72;;
78222;SDS011;67497;53.058;21.618;2023-02-28T02:49:47;321.08;;;101.03;;
78222;SDS011;67497;53.058;21.618;2023-02-28T02:51:51;360.23;;;101.72;;
78222;SDS011;67497;53.058;21.618;2023-02-28T02:53:56;322.48;;;99.95;;
78222;SDS011;67497;53.058;21.618;2023-02-28T02:56:04;341.27;;;100.43;;
78222;SDS011;67497;53.058;21.618;2023-02-28T02:58:07;343.88;;;101.75;;
78222;SDS011;67497;53.058;21.618;2023-02-28T03:00:11;345.60;;;101.32;;
78222;SDS011;67497;53.058;21.618;2023-02-28T03:02:14;329.10;;;99.45;;
78222;SDS011;67497;53.058;21.618;2023-02-28T03:04:16;323.55;;;97.28;;
78222;SDS011;67497;53.058;21.618;2023-02-28T03:06:21;326.25;;;97.20;;
78222;SDS011;67497;53.058;21.618;2023-02-28T03:08:21;333.17;;;103.32;;
78222;SDS011;67497;53.058;21.618;2023-02-28T03:10:30;353.00;;;104.72;;
78222;SDS011;67497;53.058;21.618;2023-02-28T03:12:40;337.02;;;101.85;;
78222;SDS011;67497;53.058;21.618;2023-02-28T03:22:31;354.30;;;105.28;;
78222;SDS011;67497;53.058;21.618;2023-02-28T03:24:50;367.60;;;104.90;;
78222;SDS011;67497;53.058;21.618;2023-02-28T03:27:20;375.20;;;104.45;;
78222;SDS011;67497;53.058;21.618;2023-02-28T03:29:28;342.13;;;103.53;;
78222;SDS011;67497;53.058;21.618;2023-02-28T03:31:38;375.55;;;106.97;;
78222;SDS011;67497;53.058;21.618;2023-02-28T03:33:47;355.30;;;102.53;;
78222;SDS011;67497;53.058;21.618;2023-02-28T03:36:01;346.30;;;102.47;;
78222;SDS011;67497;53.058;21.618;2023-02-28T03:38:17;353.08;;;105.85;;
78222;SDS011;67497;53.058;21.618;2023-02-28T03:40:23;375.50;;;110.07;;
78222;SDS011;67497;53.058;21.618;2023-02-28T03:42:29;368.35;;;104.75;;
78222;SDS011;67497;53.058;21.618;2023-02-28T03:44:35;379.48;;;105.50;;
78222;SDS011;67497;53.058;21.618;2023-02-28T03:46:40;349.65;;;108.90;;
78222;SDS011;67497;53.058;21.618;2023-02-28T03:48:57;366.88;;;109.47;;
78222;SDS011;67497;53.058;21.618;2023-02-28T03:51:06;383.58;;;111.97;;
78222;SDS011;67497;53.058;21.618;2023-02-28T03:53:44;369.13;;;107.32;;
78222;SDS011;67497;53.058;21.618;2023-02-28T03:55:41;380.02;;;107.63;;
78222;SDS011;67497;53.058;21.618;2023-02-28T04:00:05;374.73;;;105.60;;
78222;SDS011;67497;53.058;21.618;2023-02-28T04:02:11;381.88;;;110.35;;
78222;SDS011;67497;53.058;21.618;2023-02-28T04:04:12;388.48;;;110.75;;
78222;SDS011;67497;53.058;21.618;2023-02-28T04:06:15;388.30;;;111.00;;
78222;SDS011;67497;53.058;21.618;2023-02-28T04:08:19;392.02;;;111.68;;
78222;SDS011;67497;53.058;21.618;2023-02-28T04:10:20;385.02;;;111.40;;
78222;SDS011;67497;53.058;21.618;2023-02-28T04:12:21;399.65;;;115.68;;
78222;SDS011;67497;53.058;21.618;2023-02-28T04:14:23;386.35;;;113.80;;
78222;SDS011;67497;53.058;21.618;2023-02-28T04:16:23;395.35;;;113.25;;
78222;SDS011;67497;53.058;21.618;2023-02-28T04:18:24;400.92;;;112.35;;
78222;SDS011;67497;53.058;21.618;2023-02-28T04:20:25;405.08;;;116.00;;
78222;SDS011;67497;53.058;21.618;2023-02-28T04:22:25;374.00;;;110.82;;
78222;SDS011;67497;53.058;21.618;2023-02-28T04:24:27;395.63;;;118.90;;
78222;SDS011;67497;53.058;21.618;2023-02-28T04:26:28;390.33;;;113.55;;
78222;SDS011;67497;53.058;21.618;2023-02-28T04:28:32;398.25;;;115.97;;
78222;SDS011;67497;53.058;21.618;2023-02-28T04:30:33;391.00;;;114.95;;
78222;SDS011;67497;53.058;21.618;2023-02-28T04:32:34;389.85;;;112.43;;
78222;SDS011;67497;53.058;21.618;2023-02-28T04:34:34;377.30;;;112.50;;
78222;SDS011;67497;53.058;21.618;2023-02-28T04:36:35;412.73;;;117.95;;
78222;SDS011;67497;53.058;21.618;2023-02-28T04:38:36;403.73;;;115.05;;
78222;SDS011;67497;53.058;21.618;2023-02-28T04:42:38;389.20;;;118.93;;
78222;SDS011;67497;53.058;21.618;2023-02-28T04:44:39;420.02;;;118.05;;
78222;SDS011;67497;53.058;21.618;2023-02-28T04:46:39;412.00;;;116.78;;
78222;SDS011;67497;53.058;21.618;2023-02-28T04:48:40;417.52;;;125.60;;
78222;SDS011;67497;53.058;21.618;2023-02-28T04:50:41;410.38;;;116.47;;
78222;SDS011;67497;53.058;21.618;2023-02-28T04:52:42;410.58;;;116.53;;
78222;SDS011;67497;53.058;21.618;2023-02-28T04:54:42;406.23;;;121.93;;
78222;SDS011;67497;53.058;21.618;2023-02-28T04:56:43;396.88;;;118.88;;
78222;SDS011;67497;53.058;21.618;2023-02-28T04:58:43;415.17;;;113.82;;
78222;SDS011;67497;53.058;21.618;2023-02-28T05:00:44;407.85;;;118.82;;
78222;SDS011;67497;53.058;21.618;2023-02-28T05:02:45;410.35;;;117.60;;
78222;SDS011;67497;53.058;21.618;2023-02-28T05:04:45;424.27;;;118.70;;
78222;SDS011;67497;53.058;21.618;2023-02-28T05:06:46;413.85;;;117.63;;
78222;SDS011;67497;53.058;21.618;2023-02-28T05:08:46;401.02;;;116.30;;
78222;SDS011;67497;53.058;21.618;2023-02-28T05:10:47;418.88;;;117.68;;
78222;SDS011;67497;53.058;21.618;2023-02-28T05:12:48;407.50;;;117.93;;
78222;SDS011;67497;53.058;21.618;2023-02-28T05:14:48;421.55;;;120.57;;
78222;SDS011;67497;53.058;21.618;2023-02-28T05:16:49;410.02;;;120.47;;
78222;SDS011;67497;53.058;21.618;2023-02-28T05:18:49;444.90;;;123.50;;
78222;SDS011;67497;53.058;21.618;2023-02-28T05:20:50;422.77;;;119.10;;
78222;SDS011;67497;53.058;21.618;2023-02-28T05:22:50;421.98;;;120.65;;
78222;SDS011;67497;53.058;21.618;2023-02-28T05:24:52;430.67;;;117.97;;
78222;SDS011;67497;53.058;21.618;2023-02-28T05:26:53;425.73;;;120.32;;
78222;SDS011;67497;53.058;21.618;2023-02-28T05:28:54;421.30;;;118.22;;
78222;SDS011;67497;53.058;21.618;2023-02-28T05:30:55;417.95;;;114.40;;
78222;SDS011;67497;53.058;21.618;2023-02-28T05:32:55;418.67;;;117.18;;
78222;SDS011;67497;53.058;21.618;2023-02-28T05:34:56;425.52;;;116.88;;
78222;SDS011;67497;53.058;21.618;2023-02-28T05:36:56;433.20;;;119.05;;
78222;SDS011;67497;53.058;21.618;2023-02-28T05:38:57;399.00;;;114.63;;
78222;SDS011;67497;53.058;21.618;2023-02-28T05:40:58;427.02;;;118.45;;
78222;SDS011;67497;53.058;21.618;2023-02-28T05:42:58;433.33;;;120.45;;
78222;SDS011;67497;53.058;21.618;2023-02-28T05:44:59;446.17;;;128.98;;
78222;SDS011;67497;53.058;21.618;2023-02-28T05:46:59;428.88;;;123.95;;
78222;SDS011;67497;53.058;21.618;2023-02-28T05:49:00;428.55;;;121.72;;
78222;SDS011;67497;53.058;21.618;2023-02-28T05:51:01;428.73;;;122.80;;
78222;SDS011;67497;53.058;21.618;2023-02-28T05:53:02;438.02;;;120.32;;
78222;SDS011;67497;53.058;21.618;2023-02-28T05:55:03;434.30;;;123.72;;
78222;SDS011;67497;53.058;21.618;2023-02-28T05:57:04;438.88;;;123.88;;
78222;SDS011;67497;53.058;21.618;2023-02-28T05:59:05;431.90;;;119.55;;
78222;SDS011;67497;53.058;21.618;2023-02-28T06:03:23;441.50;;;126.38;;
78222;SDS011;67497;53.058;21.618;2023-02-28T06:05:24;436.88;;;124.72;;
78222;SDS011;67497;53.058;21.618;2023-02-28T06:07:24;415.67;;;123.38;;
78222;SDS011;67497;53.058;21.618;2023-02-28T06:09:25;424.40;;;124.07;;
78222;SDS011;67497;53.058;21.618;2023-02-28T06:11:26;442.75;;;116.28;;
78222;SDS011;67497;53.058;21.618;2023-02-28T06:13:27;439.20;;;119.97;;
78222;SDS011;67497;53.058;21.618;2023-02-28T06:15:28;434.83;;;116.95;;
78222;SDS011;67497;53.058;21.618;2023-02-28T06:17:29;458.77;;;129.32;;
78222;SDS011;67497;53.058;21.618;2023-02-28T06:19:29;439.10;;;125.50;;
78222;SDS011;67497;53.058;21.618;2023-02-28T06:21:30;446.00;;;123.13;;
78222;SDS011;67497;53.058;21.618;2023-02-28T06:23:31;430.13;;;119.47;;
78222;SDS011;67497;53.058;21.618;2023-02-28T06:25:32;428.65;;;116.03;;
78222;SDS011;67497;53.058;21.618;2023-02-28T06:27:33;427.90;;;117.97;;
78222;SDS011;67497;53.058;21.618;2023-02-28T06:29:34;454.83;;;121.70;;
78222;SDS011;67497;53.058;21.618;2023-02-28T06:31:35;429.02;;;120.25;;
78222;SDS011;67497;53.058;21.618;2023-02-28T06:33:36;427.65;;;118.15;;
78222;SDS011;67497;53.058;21.618;2023-02-28T06:35:38;432.45;;;117.45;;
78222;SDS011;67497;53.058;21.618;2023-02-28T06:37:38;419.00;;;114.93;;
78222;SDS011;67497;53.058;21.618;2023-02-28T06:39:39;416.08;;;113.43;;
78222;SDS011;67497;53.058;21.618;2023-02-28T06:41:39;404.20;;;114.53;;
78222;SDS011;67497;53.058;21.618;2023-02-28T06:43:41;421.45;;;116.18;;
78222;SDS011;67497;53.058;21.618;2023-02-28T06:45:43;410.05;;;112.18;;
78222;SDS011;67497;53.058;21.618;2023-02-28T06:47:44;421.55;;;114.65;;
78222;SDS011;67497;53.058;21.618;2023-02-28T06:49:44;413.27;;;114.00;;
78222;SDS011;67497;53.058;21.618;2023-02-28T06:51:45;411.60;;;113.60;;
78222;SDS011;67497;53.058;21.618;2023-02-28T06:53:45;423.20;;;117.13;;
78222;SDS011;67497;53.058;21.618;2023-02-28T06:55:46;425.83;;;117.75;;
78222;SDS011;67497;53.058;21.618;2023-02-28T06:57:46;411.30;;;113.78;;
78222;SDS011;67497;53.058;21.618;2023-02-28T06:59:47;400.55;;;109.15;;
78222;SDS011;67497;53.058;21.618;2023-02-28T07:01:49;398.92;;;109.43;;
78222;SDS011;67497;53.058;21.618;2023-02-28T07:03:49;387.05;;;110.45;;
78222;SDS011;67497;53.058;21.618;2023-02-28T07:05:52;382.65;;;109.05;;
78222;SDS011;67497;53.058;21.618;2023-02-28T07:07:52;378.65;;;105.15;;
78222;SDS011;67497;53.058;21.618;2023-02-28T07:09:55;377.67;;;107.68;;
78222;SDS011;67497;53.058;21.618;2023-02-28T07:11:56;370.48;;;102.97;;
78222;SDS011;67497;53.058;21.618;2023-02-28T07:13:57;375.98;;;104.55;;
78222;SDS011;67497;53.058;21.618;2023-02-28T07:15:58;386.65;;;110.32;;
78222;SDS011;67497;53.058;21.618;2023-02-28T07:18:00;360.33;;;104.20;;
78222;SDS011;67497;53.058;21.618;2023-02-28T07:20:01;360.73;;;104.10;;
78222;SDS011;67497;53.058;21.618;2023-02-28T07:22:04;355.42;;;102.38;;
78222;SDS011;67497;53.058;21.618;2023-02-28T07:24:05;363.55;;;105.15;;
78222;SDS011;67497;53.058;21.618;2023-02-28T07:26:07;354.90;;;110.45;;
78222;SDS011;67497;53.058;21.618;2023-02-28T07:28:12;381.45;;;108.60;;
78222;SDS011;67497;53.058;21.618;2023-02-28T07:30:13;344.02;;;102.35;;
78222;SDS011;67497;53.058;21.618;2023-02-28T07:32:13;349.98;;;102.72;;
78222;SDS011;67497;53.058;21.618;2023-02-28T07:34:14;354.90;;;110.35;;
78222;SDS011;67497;53.058;21.618;2023-02-28T07:36:15;334.92;;;101.18;;
78222;SDS011;67497;53.058;21.618;2023-02-28T07:38:18;328.95;;;103.30;;
78222;SDS011;67497;53.058;21.618;2023-02-28T07:40:19;321.17;;;94.85;;
78222;SDS011;67497;53.058;21.618;2023-02-28T07:42:19;321.95;;;98.18;;
78222;SDS011;67497;53.058;21.618;2023-02-28T07:44:21;329.38;;;94.57;;
78222;SDS011;67497;53.058;21.618;2023-02-28T07:46:21;287.52;;;91.63;;
78222;SDS011;67497;53.058;21.618;2023-02-28T07:48:22;305.17;;;93.80;;
78222;SDS011;67497;53.058;21.618;2023-02-28T07:50:23;325.33;;;95.05;;
78222;SDS011;67497;53.058;21.618;2023-02-28T07:52:24;290.17;;;89.53;;
78222;SDS011;67497;53.058;21.618;2023-02-28T07:54:24;285.60;;;87.75;;
78222;SDS011;67497;53.058;21.618;2023-02-28T07:56:25;305.15;;;90.40;;
78222;SDS011;67497;53.058;21.618;2023-02-28T07:58:26;284.85;;;91.00;;
78222;SDS011;67497;53.058;21.618;2023-02-28T08:00:27;287.23;;;85.47;;
78222;SDS011;67497;53.058;21.618;2023-02-28T08:02:29;296.58;;;87.70;;
78222;SDS011;67497;53.058;21.618;2023-02-28T08:04:31;259.40;;;82.32;;
78222;SDS011;67497;53.058;21.618;2023-02-28T08:06:32;272.52;;;81.97;;
78222;SDS011;67497;53.058;21.618;2023-02-28T08:08:33;253.65;;;78.82;;
78222;SDS011;67497;53.058;21.618;2023-02-28T08:10:34;267.02;;;80.38;;
78222;SDS011;67497;53.058;21.618;2023-02-28T08:12:35;252.63;;;80.15;;
78222;SDS011;67497;53.058;21.618;2023-02-28T08:14:36;246.73;;;75.28;;
78222;SDS011;67497;53.058;21.618;2023-02-28T08:16:37;260.63;;;80.43;;
78222;SDS011;67497;53.058;21.618;2023-02-28T08:18:38;249.15;;;76.35;;
78222;SDS011;67497;53.058;21.618;2023-02-28T08:20:39;233.90;;;74.70;;
78222;SDS011;67497;53.058;21.618;2023-02-28T08:22:39;232.70;;;72.65;;
78222;SDS011;67497;53.058;21.618;2023-02-28T08:24:41;231.70;;;75.47;;
78222;SDS011;67497;53.058;21.618;2023-02-28T08:26:43;233.63;;;71.30;;
78222;SDS011;67497;53.058;21.618;2023-02-28T08:28:43;226.30;;;72.28;;
78222;SDS011;67497;53.058;21.618;2023-02-28T08:30:45;225.95;;;68.95;;
78222;SDS011;67497;53.058;21.618;2023-02-28T08:32:45;221.55;;;71.32;;
78222;SDS011;67497;53.058;21.618;2023-02-28T08:34:46;219.57;;;69.40;;
78222;SDS011;67497;53.058;21.618;2023-02-28T08:36:47;210.77;;;66.72;;
78222;SDS011;67497;53.058;21.618;2023-02-28T08:38:47;202.40;;;65.35;;
78222;SDS011;67497;53.058;21.618;2023-02-28T08:40:48;205.25;;;63.90;;
78222;SDS011;67497;53.058;21.618;2023-02-28T08:42:49;193.95;;;62.83;;
78222;SDS011;67497;53.058;21.618;2023-02-28T08:44:50;210.98;;;67.50;;
78222;SDS011;67497;53.058;21.618;2023-02-28T08:46:50;195.20;;;61.63;;
78222;SDS011;67497;53.058;21.618;2023-02-28T08:48:51;196.55;;;62.63;;
78222;SDS011;67497;53.058;21.618;2023-02-28T08:51:06;203.30;;;65.28;;
78222;SDS011;67497;53.058;21.618;2023-02-28T08:53:09;195.43;;;60.28;;
78222;SDS011;67497;53.058;21.618;2023-02-28T08:55:09;187.32;;;60.90;;
78222;SDS011;67497;53.058;21.618;2023-02-28T08:57:10;191.80;;;65.70;;
78222;SDS011;67497;53.058;21.618;2023-02-28T08:59:11;179.85;;;61.53;;
78222;SDS011;67497;53.058;21.618;2023-02-28T09:01:22;184.52;;;58.83;;
78222;SDS011;67497;53.058;21.618;2023-02-28T09:03:24;169.55;;;55.33;;
78222;SDS011;67497;53.058;21.618;2023-02-28T09:05:25;192.77;;;61.38;;
78222;SDS011;67497;53.058;21.618;2023-02-28T09:07:25;173.45;;;58.97;;
78222;SDS011;67497;53.058;21.618;2023-02-28T09:09:26;167.25;;;55.05;;
78222;SDS011;67497;53.058;21.618;2023-02-28T09:11:29;170.23;;;57.38;;
78222;SDS011;67497;53.058;21.618;2023-02-28T09:13:30;183.52;;;59.17;;
78222;SDS011;67497;53.058;21.618;2023-02-28T09:15:32;172.73;;;54.72;;
78222;SDS011;67497;53.058;21.618;2023-02-28T09:17:32;165.73;;;53.10;;
78222;SDS011;67497;53.058;21.618;2023-02-28T09:19:35;160.65;;;52.92;;
78222;SDS011;67497;53.058;21.618;2023-02-28T09:21:36;173.32;;;53.70;;
78222;SDS011;67497;53.058;21.618;2023-02-28T09:23:37;170.45;;;52.95;;
78222;SDS011;67497;53.058;21.618;2023-02-28T09:25:50;162.20;;;52.78;;
78222;SDS011;67497;53.058;21.618;2023-02-28T09:27:53;165.52;;;54.38;;
78222;SDS011;67497;53.058;21.618;2023-02-28T09:29:53;155.10;;;53.85;;
78222;SDS011;67497;53.058;21.618;2023-02-28T09:31:54;151.70;;;51.47;;
78222;SDS011;67497;53.058;21.618;2023-02-28T09:33:55;155.15;;;53.30;;
78222;SDS011;67497;53.058;21.618;2023-02-28T09:35:58;165.50;;;52.33;;
78222;SDS011;67497;53.058;21.618;2023-02-28T09:38:00;161.07;;;49.90;;
78222;SDS011;67497;53.058;21.618;2023-02-28T09:40:03;157.02;;;50.08;;
78222;SDS011;67497;53.058;21.618;2023-02-28T09:42:04;169.30;;;50.13;;
78222;SDS011;67497;53.058;21.618;2023-02-28T09:44:05;144.45;;;47.28;;
78222;SDS011;67497;53.058;21.618;2023-02-28T09:48:41;153.82;;;48.00;;
78222;SDS011;67497;53.058;21.618;2023-02-28T09:50:50;138.60;;;48.33;;
78222;SDS011;67497;53.058;21.618;2023-02-28T09:53:04;141.43;;;42.10;;
78222;SDS011;67497;53.058;21.618;2023-02-28T09:55:30;124.30;;;39.78;;
78222;SDS011;67497;53.058;21.618;2023-02-28T09:57:38;126.13;;;40.03;;
78222;SDS011;67497;53.058;21.618;2023-02-28T10:06:55;131.10;;;40.10;;
78222;SDS011;67497;53.058;21.618;2023-02-28T10:11:19;111.47;;;38.25;;
78222;SDS011;67497;53.058;21.618;2023-02-28T10:15:32;110.45;;;36.08;;
78222;SDS011;67497;53.058;21.618;2023-02-28T10:17:39;112.30;;;34.65;;
78222;SDS011;67497;53.058;21.618;2023-02-28T10:20:05;102.20;;;32.67;;
78222;SDS011;67497;53.058;21.618;2023-02-28T10:22:13;114.90;;;35.53;;
78222;SDS011;67497;53.058;21.618;2023-02-28T10:24:32;98.30;;;31.73;;
78222;SDS011;67497;53.058;21.618;2023-02-28T10:26:37;102.57;;;33.25;;
78222;SDS011;67497;53.058;21.618;2023-02-28T10:28:38;110.18;;;34.80;;
78222;SDS011;67497;53.058;21.618;2023-02-28T10:30:41;101.40;;;32.40;;
78222;SDS011;67497;53.058;21.618;2023-02-28T10:32:47;97.18;;;33.70;;
78222;SDS011;67497;53.058;21.618;2023-02-28T10:34:51;110.22;;;32.55;;
78222;SDS011;67497;53.058;21.618;2023-02-28T10:36:57;90.68;;;30.02;;
78222;SDS011;67497;53.058;21.618;2023-02-28T10:41:37;101.88;;;33.83;;
78222;SDS011;67497;53.058;21.618;2023-02-28T10:43:43;94.97;;;29.70;;
78222;SDS011;67497;53.058;21.618;2023-02-28T10:52:39;84.65;;;28.70;;
78222;SDS011;67497;53.058;21.618;2023-02-28T10:54:40;86.95;;;28.60;;
78222;SDS011;67497;53.058;21.618;2023-02-28T10:56:41;98.38;;;31.63;;
78222;SDS011;67497;53.058;21.618;2023-02-28T11:00:51;80.78;;;28.40;;
78222;SDS011;67497;53.058;21.618;2023-02-28T11:02:52;81.40;;;28.60;;
78222;SDS011;67497;53.058;21.618;2023-02-28T11:04:53;93.60;;;29.60;;
78222;SDS011;67497;53.058;21.618;2023-02-28T11:07:00;90.72;;;27.20;;
78222;SDS011;67497;53.058;21.618;2023-02-28T11:09:13;85.22;;;29.98;;
78222;SDS011;67497;53.058;21.618;2023-02-28T11:11:20;74.22;;;26.35;;
78222;SDS011;67497;53.058;21.618;2023-02-28T11:13:32;90.82;;;28.35;;
78222;SDS011;67497;53.058;21.618;2023-02-28T11:15:34;77.05;;;25.80;;
78222;SDS011;67497;53.058;21.618;2023-02-28T11:17:35;87.72;;;26.60;;
78222;SDS011;67497;53.058;21.618;2023-02-28T11:19:39;82.28;;;26.38;;
78222;SDS011;67497;53.058;21.618;2023-02-28T11:21:48;72.43;;;25.35;;
78222;SDS011;67497;53.058;21.618;2023-02-28T11:24:22;73.22;;;26.92;;
78222;SDS011;67497;53.058;21.618;2023-02-28T11:26:45;79.30;;;27.30;;
78222;SDS011;67497;53.058;21.618;2023-02-28T11:28:46;71.82;;;22.73;;
78222;SDS011;67497;53.058;21.618;2023-02-28T11:30:49;75.30;;;25.30;;
78222;SDS011;67497;53.058;21.618;2023-02-28T11:33:18;77.47;;;25.33;;
78222;SDS011;67497;53.058;21.618;2023-02-28T11:35:44;75.55;;;23.55;;
78222;SDS011;67497;53.058;21.618;2023-02-28T11:37:44;79.35;;;26.23;;
78222;SDS011;67497;53.058;21.618;2023-02-28T11:39:45;64.90;;;24.65;;
78222;SDS011;67497;53.058;21.618;2023-02-28T11:51:24;63.88;;;22.95;;
78222;SDS011;67497;53.058;21.618;2023-02-28T11:55:49;65.40;;;21.50;;
78222;SDS011;67497;53.058;21.618;2023-02-28T11:58:05;69.60;;;20.73;;
78222;SDS011;67497;53.058;21.618;2023-02-28T12:07:34;66.65;;;23.60;;
78222;SDS011;67497;53.058;21.618;2023-02-28T12:09:58;65.07;;;21.52;;
78222;SDS011;67497;53.058;21.618;2023-02-28T12:12:29;65.85;;;21.17;;
78222;SDS011;67497;53.058;21.618;2023-02-28T12:17:19;63.75;;;21.17;;
78222;SDS011;67497;53.058;21.618;2023-02-28T12:23:50;61.50;;;20.35;;
78222;SDS011;67497;53.058;21.618;2023-02-28T12:28:46;70.22;;;20.90;;
78222;SDS011;67497;53.058;21.618;2023-02-28T12:30:53;60.67;;;19.65;;
78222;SDS011;67497;53.058;21.618;2023-02-28T12:33:11;66.00;;;20.77;;
78222;SDS011;67497;53.058;21.618;2023-02-28T12:35:37;56.55;;;20.45;;
78222;SDS011;67497;53.058;21.618;2023-02-28T12:39:54;55.72;;;18.98;;
78222;SDS011;67497;53.058;21.618;2023-02-28T12:42:07;63.78;;;20.00;;
78222;SDS011;67497;53.058;21.618;2023-02-28T12:44:17;53.50;;;20.02;;
78222;SDS011;67497;53.058;21.618;2023-02-28T12:46:30;52.17;;;19.10;;
78222;SDS011;67497;53.058;21.618;2023-02-28T12:48:40;58.08;;;20.83;;
78222;SDS011;67497;53.058;21.618;2023-02-28T12:50:48;50.25;;;18.05;;
78222;SDS011;67497;53.058;21.618;2023-02-28T12:57:35;55.40;;;19.05;;
78222;SDS011;67497;53.058;21.618;2023-02-28T13:00:10;51.33;;;17.42;;
78222;SDS011;67497;53.058;21.618;2023-02-28T13:02:22;65.78;;;18.30;;
78222;SDS011;67497;53.058;21.618;2023-02-28T13:09:38;54.50;;;18.23;;
78222;SDS011;67497;53.058;21.618;2023-02-28T13:11:41;51.50;;;17.27;;
78222;SDS011;67497;53.058;21.618;2023-02-28T13:13:43;52.63;;;17.88;;
78222;SDS011;67497;53.058;21.618;2023-02-28T13:16:04;49.25;;;16.40;;
78222;SDS011;67497;53.058;21.618;2023-02-28T13:18:20;48.35;;;15.65;;
78222;SDS011;67497;53.058;21.618;2023-02-28T13:20:36;50.45;;;15.95;;
78222;SDS011;67497;53.058;21.618;2023-02-28T13:22:49;52.63;;;17.35;;
78222;SDS011;67497;53.058;21.618;2023-02-28T13:24:53;45.55;;;16.52;;
78222;SDS011;67497;53.058;21.618;2023-02-28T13:29:01;48.50;;;15.75;;